sensor_id;sensor_type;location;lat;lon;timestamp;P1;durP1;ratioP1;P2;durP2;ratioP2
15595;SDS011;7898;48.658;9.068;2023-04-06T00:00:31;10.70;;;7.73;;
15595;SDS011;7898;48.658;9.068;2023-04-06T00:02:58;9.57;;;6.40;;
15595;SDS011;7898;48.658;9.068;2023-04-06T00:05:27;9.00;;;6.80;;
15595;SDS011;7898;48.658;9.068;2023-04-06T00:07:55;11.50;;;7.60;;
15595;SDS011;7898;48.658;9.068;2023-04-06T00:10:23;11.70;;;7.60;;
15595;SDS011;7898;48.658;9.068;2023-04-06T00:12:50;11.57;;;6.93;;
15595;SDS011;7898;48.658;9.068;2023-04-06T00:15:17;15.33;;;8.83;;
15595;SDS011;7898;48.658;9.068;2023-04-06T00:17:44;21.03;;;10.87;;
15595;SDS011;7898;48.658;9.068;2023-04-06T00:20:11;20.47;;;10.70;;
15595;SDS011;7898;48.658;9.068;2023-04-06T00:22:39;12.73;;;8.03;;
15595;SDS011;7898;48.658;9.068;2023-04-06T00:25:07;11.37;;;8.10;;
15595;SDS011;7898;48.658;9.068;2023-04-06T00:27:35;12.93;;;7.43;;
15595;SDS011;7898;48.658;9.068;2023-04-06T00:30:02;12.73;;;8.07;;
15595;SDS011;7898;48.658;9.068;2023-04-06T00:32:29;12.70;;;7.87;;
15595;SDS011;7898;48.658;9.068;2023-04-06T00:34:56;13.60;;;8.10;;
15595;SDS011;7898;48.658;9.068;2023-04-06T00:37:24;10.80;;;7.00;;
15595;SDS011;7898;48.658;9.068;2023-04-06T00:39:52;10.37;;;7.87;;
15595;SDS011;7898;48.658;9.068;2023-04-06T00:42:19;10.40;;;7.67;;
15595;SDS011;7898;48.658;9.068;2023-04-06T00:44:50;11.57;;;6.90;;
15595;SDS011;7898;48.658;9.068;2023-04-06T00:47:18;9.87;;;7.10;;
15595;SDS011;7898;48.658;9.068;2023-04-06T00:49:45;9.30;;;7.10;;
15595;SDS011;7898;48.658;9.068;2023-04-06T00:52:12;14.37;;;7.67;;
15595;SDS011;7898;48.658;9.068;2023-04-06T00:54:39;12.43;;;7.90;;
15595;SDS011;7898;48.658;9.068;2023-04-06T00:57:08;11.53;;;7.83;;
15595;SDS011;7898;48.658;9.068;2023-04-06T00:59:35;9.63;;;6.90;;
15595;SDS011;7898;48.658;9.068;2023-04-06T01:02:02;11.40;;;7.30;;
15595;SDS011;7898;48.658;9.068;2023-04-06T01:04:29;14.80;;;8.23;;
15595;SDS011;7898;48.658;9.068;2023-04-06T01:06:56;12.67;;;7.80;;
15595;SDS011;7898;48.658;9.068;2023-04-06T01:09:23;10.93;;;7.03;;
15595;SDS011;7898;48.658;9.068;2023-04-06T01:11:50;10.30;;;7.90;;
15595;SDS011;7898;48.658;9.068;2023-04-06T01:14:18;10.23;;;7.30;;
15595;SDS011;7898;48.658;9.068;2023-04-06T01:16:45;10.13;;;7.37;;
15595;SDS011;7898;48.658;9.068;2023-04-06T01:19:12;9.83;;;6.93;;
15595;SDS011;7898;48.658;9.068;2023-04-06T01:21:40;11.97;;;7.33;;
15595;SDS011;7898;48.658;9.068;2023-04-06T01:24:09;11.87;;;7.33;;
15595;SDS011;7898;48.658;9.068;2023-04-06T01:26:36;10.80;;;7.77;;
15595;SDS011;7898;48.658;9.068;2023-04-06T01:29:04;8.70;;;7.53;;
15595;SDS011;7898;48.658;9.068;2023-04-06T01:31:31;9.77;;;7.30;;
15595;SDS011;7898;48.658;9.068;2023-04-06T01:33:58;12.80;;;8.40;;
15595;SDS011;7898;48.658;9.068;2023-04-06T01:36:25;13.67;;;8.57;;
15595;SDS011;7898;48.658;9.068;2023-04-06T01:38:52;11.93;;;8.30;;
15595;SDS011;7898;48.658;9.068;2023-04-06T01:41:21;10.17;;;7.60;;
15595;SDS011;7898;48.658;9.068;2023-04-06T01:43:48;11.73;;;8.07;;
15595;SDS011;7898;48.658;9.068;2023-04-06T01:46:19;10.93;;;7.03;;
15595;SDS011;7898;48.658;9.068;2023-04-06T01:48:46;17.10;;;8.33;;
15595;SDS011;7898;48.658;9.068;2023-04-06T01:51:13;10.70;;;7.60;;
15595;SDS011;7898;48.658;9.068;2023-04-06T01:53:40;10.57;;;7.83;;
15595;SDS011;7898;48.658;9.068;2023-04-06T01:56:07;18.57;;;7.40;;
15595;SDS011;7898;48.658;9.068;2023-04-06T01:58:36;15.07;;;8.10;;
15595;SDS011;7898;48.658;9.068;2023-04-06T02:01:03;10.40;;;7.53;;
15595;SDS011;7898;48.658;9.068;2023-04-06T02:03:30;11.83;;;8.03;;
15595;SDS011;7898;48.658;9.068;2023-04-06T02:05:57;15.43;;;7.97;;
15595;SDS011;7898;48.658;9.068;2023-04-06T02:08:24;12.33;;;7.70;;
15595;SDS011;7898;48.658;9.068;2023-04-06T02:10:51;14.27;;;8.07;;
15595;SDS011;7898;48.658;9.068;2023-04-06T02:13:18;12.43;;;8.23;;
15595;SDS011;7898;48.658;9.068;2023-04-06T02:15:46;11.30;;;7.80;;
15595;SDS011;7898;48.658;9.068;2023-04-06T02:18:13;14.43;;;8.80;;
15595;SDS011;7898;48.658;9.068;2023-04-06T02:20:42;13.20;;;8.07;;
15595;SDS011;7898;48.658;9.068;2023-04-06T02:23:09;14.10;;;8.47;;
15595;SDS011;7898;48.658;9.068;2023-04-06T02:25:36;12.93;;;8.17;;
15595;SDS011;7898;48.658;9.068;2023-04-06T02:28:03;14.93;;;8.97;;
15595;SDS011;7898;48.658;9.068;2023-04-06T02:30:30;10.97;;;7.70;;
15595;SDS011;7898;48.658;9.068;2023-04-06T02:32:59;11.50;;;8.30;;
15595;SDS011;7898;48.658;9.068;2023-04-06T02:35:27;14.20;;;8.13;;
15595;SDS011;7898;48.658;9.068;2023-04-06T02:37:54;12.67;;;7.93;;
15595;SDS011;7898;48.658;9.068;2023-04-06T02:40:21;12.37;;;8.50;;
15595;SDS011;7898;48.658;9.068;2023-04-06T02:42:48;9.90;;;7.70;;
15595;SDS011;7898;48.658;9.068;2023-04-06T02:45:15;12.17;;;8.20;;
15595;SDS011;7898;48.658;9.068;2023-04-06T02:47:42;12.17;;;8.30;;
15595;SDS011;7898;48.658;9.068;2023-04-06T02:50:10;12.57;;;7.90;;
15595;SDS011;7898;48.658;9.068;2023-04-06T02:52:37;20.77;;;8.67;;
15595;SDS011;7898;48.658;9.068;2023-04-06T02:55:05;16.50;;;8.60;;
15595;SDS011;7898;48.658;9.068;2023-04-06T02:57:33;10.80;;;8.03;;
15595;SDS011;7898;48.658;9.068;2023-04-06T02:59:59;11.47;;;7.90;;
15595;SDS011;7898;48.658;9.068;2023-04-06T03:02:26;13.63;;;8.37;;
15595;SDS011;7898;48.658;9.068;2023-04-06T03:04:53;13.40;;;8.23;;
15595;SDS011;7898;48.658;9.068;2023-04-06T03:07:22;14.23;;;8.33;;
15595;SDS011;7898;48.658;9.068;2023-04-06T03:09:49;12.80;;;8.03;;
15595;SDS011;7898;48.658;9.068;2023-04-06T03:12:16;14.30;;;8.50;;
15595;SDS011;7898;48.658;9.068;2023-04-06T03:14:43;12.60;;;9.03;;
15595;SDS011;7898;48.658;9.068;2023-04-06T03:17:10;11.83;;;8.17;;
15595;SDS011;7898;48.658;9.068;2023-04-06T03:19:37;12.43;;;8.17;;
15595;SDS011;7898;48.658;9.068;2023-04-06T03:22:03;11.00;;;8.10;;
15595;SDS011;7898;48.658;9.068;2023-04-06T03:24:32;14.43;;;8.70;;
15595;SDS011;7898;48.658;9.068;2023-04-06T03:26:59;12.20;;;7.77;;
15595;SDS011;7898;48.658;9.068;2023-04-06T03:29:26;11.50;;;8.03;;
15595;SDS011;7898;48.658;9.068;2023-04-06T03:31:53;11.60;;;7.93;;
15595;SDS011;7898;48.658;9.068;2023-04-06T03:34:23;11.00;;;8.07;;
15595;SDS011;7898;48.658;9.068;2023-04-06T03:36:50;12.77;;;8.87;;
15595;SDS011;7898;48.658;9.068;2023-04-06T03:39:17;12.40;;;8.37;;
15595;SDS011;7898;48.658;9.068;2023-04-06T03:41:45;13.50;;;8.30;;
15595;SDS011;7898;48.658;9.068;2023-04-06T03:44:12;10.83;;;7.93;;
15595;SDS011;7898;48.658;9.068;2023-04-06T03:46:42;13.33;;;8.60;;
15595;SDS011;7898;48.658;9.068;2023-04-06T03:49:09;13.20;;;8.87;;
15595;SDS011;7898;48.658;9.068;2023-04-06T03:51:36;13.63;;;8.03;;
15595;SDS011;7898;48.658;9.068;2023-04-06T03:54:03;14.80;;;8.90;;
15595;SDS011;7898;48.658;9.068;2023-04-06T03:56:31;12.47;;;8.57;;
15595;SDS011;7898;48.658;9.068;2023-04-06T03:58:59;14.70;;;8.30;;
15595;SDS011;7898;48.658;9.068;2023-04-06T04:01:27;13.13;;;8.23;;
15595;SDS011;7898;48.658;9.068;2023-04-06T04:03:53;12.03;;;8.10;;
15595;SDS011;7898;48.658;9.068;2023-04-06T04:06:20;13.17;;;8.53;;
15595;SDS011;7898;48.658;9.068;2023-04-06T04:08:48;15.43;;;10.37;;
15595;SDS011;7898;48.658;9.068;2023-04-06T04:11:15;15.00;;;10.83;;
15595;SDS011;7898;48.658;9.068;2023-04-06T04:13:42;16.43;;;10.53;;
15595;SDS011;7898;48.658;9.068;2023-04-06T04:16:10;16.97;;;10.00;;
15595;SDS011;7898;48.658;9.068;2023-04-06T04:18:37;15.53;;;8.70;;
15595;SDS011;7898;48.658;9.068;2023-04-06T04:21:04;15.33;;;8.33;;
15595;SDS011;7898;48.658;9.068;2023-04-06T04:23:31;13.17;;;8.47;;
15595;SDS011;7898;48.658;9.068;2023-04-06T04:25:58;12.73;;;8.73;;
15595;SDS011;7898;48.658;9.068;2023-04-06T04:28:25;14.13;;;8.33;;
15595;SDS011;7898;48.658;9.068;2023-04-06T04:30:52;13.60;;;9.03;;
15595;SDS011;7898;48.658;9.068;2023-04-06T04:33:20;12.20;;;7.70;;
15595;SDS011;7898;48.658;9.068;2023-04-06T04:35:50;12.87;;;8.27;;
15595;SDS011;7898;48.658;9.068;2023-04-06T04:38:17;12.57;;;8.43;;
15595;SDS011;7898;48.658;9.068;2023-04-06T04:40:44;13.13;;;8.47;;
15595;SDS011;7898;48.658;9.068;2023-04-06T04:43:11;14.13;;;9.93;;
15595;SDS011;7898;48.658;9.068;2023-04-06T04:45:40;13.40;;;9.07;;
15595;SDS011;7898;48.658;9.068;2023-04-06T04:48:07;15.70;;;9.17;;
15595;SDS011;7898;48.658;9.068;2023-04-06T04:53:42;11.73;;;8.50;;
15595;SDS011;7898;48.658;9.068;2023-04-06T04:56:09;12.60;;;8.47;;
15595;SDS011;7898;48.658;9.068;2023-04-06T04:58:36;14.03;;;8.50;;
15595;SDS011;7898;48.658;9.068;2023-04-06T05:01:03;13.53;;;8.83;;
15595;SDS011;7898;48.658;9.068;2023-04-06T05:03:31;14.40;;;9.10;;
15595;SDS011;7898;48.658;9.068;2023-04-06T05:05:59;14.40;;;9.10;;
15595;SDS011;7898;48.658;9.068;2023-04-06T05:08:26;14.80;;;9.10;;
15595;SDS011;7898;48.658;9.068;2023-04-06T05:10:54;15.57;;;9.27;;
15595;SDS011;7898;48.658;9.068;2023-04-06T05:13:21;15.00;;;8.57;;
15595;SDS011;7898;48.658;9.068;2023-04-06T05:15:48;12.33;;;8.33;;
15595;SDS011;7898;48.658;9.068;2023-04-06T05:18:15;14.73;;;9.17;;
15595;SDS011;7898;48.658;9.068;2023-04-06T05:20:43;14.70;;;8.67;;
15595;SDS011;7898;48.658;9.068;2023-04-06T05:23:10;15.57;;;9.50;;
15595;SDS011;7898;48.658;9.068;2023-04-06T05:25:37;13.83;;;9.17;;
15595;SDS011;7898;48.658;9.068;2023-04-06T05:28:05;17.03;;;9.07;;
15595;SDS011;7898;48.658;9.068;2023-04-06T05:30:32;12.57;;;8.93;;
15595;SDS011;7898;48.658;9.068;2023-04-06T05:33:00;14.13;;;9.03;;
15595;SDS011;7898;48.658;9.068;2023-04-06T05:35:27;14.87;;;8.07;;
15595;SDS011;7898;48.658;9.068;2023-04-06T05:37:54;12.80;;;8.83;;
15595;SDS011;7898;48.658;9.068;2023-04-06T05:40:21;12.03;;;8.10;;
15595;SDS011;7898;48.658;9.068;2023-04-06T05:42:48;14.57;;;9.17;;
15595;SDS011;7898;48.658;9.068;2023-04-06T05:45:18;12.70;;;8.80;;
15595;SDS011;7898;48.658;9.068;2023-04-06T05:47:45;15.43;;;8.67;;
15595;SDS011;7898;48.658;9.068;2023-04-06T05:50:15;15.90;;;10.03;;
15595;SDS011;7898;48.658;9.068;2023-04-06T05:52:42;18.47;;;10.87;;
15595;SDS011;7898;48.658;9.068;2023-04-06T05:55:11;15.03;;;9.53;;
15595;SDS011;7898;48.658;9.068;2023-04-06T05:57:38;15.23;;;10.47;;
15595;SDS011;7898;48.658;9.068;2023-04-06T06:00:06;16.13;;;10.27;;
15595;SDS011;7898;48.658;9.068;2023-04-06T06:02:36;13.90;;;9.50;;
15595;SDS011;7898;48.658;9.068;2023-04-06T06:05:04;13.40;;;9.20;;
15595;SDS011;7898;48.658;9.068;2023-04-06T06:07:31;15.07;;;9.37;;
15595;SDS011;7898;48.658;9.068;2023-04-06T06:09:58;14.23;;;8.83;;
15595;SDS011;7898;48.658;9.068;2023-04-06T06:12:25;14.77;;;9.43;;
15595;SDS011;7898;48.658;9.068;2023-04-06T06:14:52;15.63;;;10.07;;
15595;SDS011;7898;48.658;9.068;2023-04-06T06:17:20;14.33;;;9.47;;
15595;SDS011;7898;48.658;9.068;2023-04-06T06:19:48;15.63;;;10.97;;
15595;SDS011;7898;48.658;9.068;2023-04-06T06:22:15;17.53;;;10.70;;
15595;SDS011;7898;48.658;9.068;2023-04-06T06:24:42;14.10;;;8.90;;
15595;SDS011;7898;48.658;9.068;2023-04-06T06:27:10;14.40;;;9.90;;
15595;SDS011;7898;48.658;9.068;2023-04-06T06:29:36;14.77;;;11.07;;
15595;SDS011;7898;48.658;9.068;2023-04-06T06:32:04;17.10;;;11.67;;
15595;SDS011;7898;48.658;9.068;2023-04-06T06:34:31;18.47;;;12.10;;
15595;SDS011;7898;48.658;9.068;2023-04-06T06:36:59;20.53;;;12.60;;
15595;SDS011;7898;48.658;9.068;2023-04-06T06:39:27;25.33;;;14.10;;
15595;SDS011;7898;48.658;9.068;2023-04-06T06:41:54;22.30;;;15.87;;
15595;SDS011;7898;48.658;9.068;2023-04-06T06:44:21;15.97;;;11.70;;
15595;SDS011;7898;48.658;9.068;2023-04-06T06:46:48;16.97;;;12.10;;
15595;SDS011;7898;48.658;9.068;2023-04-06T06:49:15;13.97;;;11.63;;
15595;SDS011;7898;48.658;9.068;2023-04-06T06:51:42;12.30;;;10.17;;
15595;SDS011;7898;48.658;9.068;2023-04-06T06:54:10;16.50;;;11.87;;
15595;SDS011;7898;48.658;9.068;2023-04-06T06:56:38;14.07;;;12.13;;
15595;SDS011;7898;48.658;9.068;2023-04-06T06:59:05;12.07;;;10.13;;
15595;SDS011;7898;48.658;9.068;2023-04-06T07:01:32;12.53;;;10.03;;
15595;SDS011;7898;48.658;9.068;2023-04-06T07:04:00;12.13;;;10.00;;
15595;SDS011;7898;48.658;9.068;2023-04-06T07:06:27;11.97;;;9.10;;
15595;SDS011;7898;48.658;9.068;2023-04-06T07:08:54;12.13;;;10.27;;
15595;SDS011;7898;48.658;9.068;2023-04-06T07:11:22;15.77;;;9.93;;
15595;SDS011;7898;48.658;9.068;2023-04-06T07:13:49;10.85;;;9.45;;
15595;SDS011;7898;48.658;9.068;2023-04-06T07:16:16;12.23;;;9.60;;
15595;SDS011;7898;48.658;9.068;2023-04-06T07:18:43;11.35;;;10.00;;
15595;SDS011;7898;48.658;9.068;2023-04-06T07:21:10;14.23;;;10.20;;
15595;SDS011;7898;48.658;9.068;2023-04-06T07:23:38;12.45;;;10.13;;
15595;SDS011;7898;48.658;9.068;2023-04-06T07:26:05;14.23;;;10.45;;
15595;SDS011;7898;48.658;9.068;2023-04-06T07:28:33;11.95;;;9.52;;
15595;SDS011;7898;48.658;9.068;2023-04-06T07:31:00;11.48;;;10.30;;
15595;SDS011;7898;48.658;9.068;2023-04-06T07:33:27;13.27;;;10.50;;
15595;SDS011;7898;48.658;9.068;2023-04-06T07:35:55;12.43;;;9.93;;
15595;SDS011;7898;48.658;9.068;2023-04-06T07:38:23;11.82;;;10.63;;
15595;SDS011;7898;48.658;9.068;2023-04-06T07:40:50;13.52;;;10.90;;
15595;SDS011;7898;48.658;9.068;2023-04-06T07:43:17;15.80;;;10.90;;
15595;SDS011;7898;48.658;9.068;2023-04-06T07:45:45;11.98;;;10.05;;
15595;SDS011;7898;48.658;9.068;2023-04-06T07:48:12;12.65;;;11.27;;
15595;SDS011;7898;48.658;9.068;2023-04-06T07:50:40;13.20;;;11.45;;
15595;SDS011;7898;48.658;9.068;2023-04-06T07:53:07;12.13;;;10.88;;
15595;SDS011;7898;48.658;9.068;2023-04-06T07:55:35;14.98;;;10.68;;
15595;SDS011;7898;48.658;9.068;2023-04-06T07:58:02;13.45;;;11.02;;
15595;SDS011;7898;48.658;9.068;2023-04-06T08:00:29;12.48;;;10.75;;
15595;SDS011;7898;48.658;9.068;2023-04-06T08:02:58;12.40;;;11.10;;
15595;SDS011;7898;48.658;9.068;2023-04-06T08:05:25;11.30;;;10.20;;
15595;SDS011;7898;48.658;9.068;2023-04-06T08:07:52;13.98;;;11.35;;
15595;SDS011;7898;48.658;9.068;2023-04-06T08:10:19;12.40;;;11.07;;
15595;SDS011;7898;48.658;9.068;2023-04-06T08:12:46;12.95;;;11.30;;
15595;SDS011;7898;48.658;9.068;2023-04-06T08:15:13;15.02;;;11.40;;
15595;SDS011;7898;48.658;9.068;2023-04-06T08:17:40;17.27;;;10.90;;
15595;SDS011;7898;48.658;9.068;2023-04-06T08:20:08;12.77;;;10.45;;
15595;SDS011;7898;48.658;9.068;2023-04-06T08:22:36;14.38;;;10.73;;
15595;SDS011;7898;48.658;9.068;2023-04-06T08:25:03;12.57;;;10.45;;
15595;SDS011;7898;48.658;9.068;2023-04-06T08:27:30;12.73;;;10.93;;
15595;SDS011;7898;48.658;9.068;2023-04-06T08:29:57;13.65;;;10.70;;
15595;SDS011;7898;48.658;9.068;2023-04-06T08:32:24;12.93;;;10.68;;
15595;SDS011;7898;48.658;9.068;2023-04-06T08:34:53;11.60;;;10.40;;
15595;SDS011;7898;48.658;9.068;2023-04-06T08:37:21;13.15;;;10.45;;
15595;SDS011;7898;48.658;9.068;2023-04-06T08:39:48;12.95;;;10.38;;
15595;SDS011;7898;48.658;9.068;2023-04-06T08:42:16;12.68;;;10.05;;
15595;SDS011;7898;48.658;9.068;2023-04-06T08:44:45;11.60;;;9.75;;
15595;SDS011;7898;48.658;9.068;2023-04-06T08:47:16;11.63;;;10.20;;
15595;SDS011;7898;48.658;9.068;2023-04-06T08:49:43;12.75;;;10.27;;
15595;SDS011;7898;48.658;9.068;2023-04-06T08:52:11;12.20;;;9.38;;
15595;SDS011;7898;48.658;9.068;2023-04-06T08:54:40;12.20;;;10.05;;
15595;SDS011;7898;48.658;9.068;2023-04-06T08:57:07;11.55;;;9.82;;
15595;SDS011;7898;48.658;9.068;2023-04-06T08:59:36;10.60;;;8.63;;
15595;SDS011;7898;48.658;9.068;2023-04-06T09:02:04;12.70;;;9.52;;
15595;SDS011;7898;48.658;9.068;2023-04-06T09:04:31;13.13;;;8.73;;
15595;SDS011;7898;48.658;9.068;2023-04-06T09:06:59;10.25;;;9.10;;
15595;SDS011;7898;48.658;9.068;2023-04-06T09:09:26;9.82;;;8.68;;
15595;SDS011;7898;48.658;9.068;2023-04-06T09:11:54;12.43;;;9.30;;
15595;SDS011;7898;48.658;9.068;2023-04-06T09:14:35;10.32;;;8.15;;
15595;SDS011;7898;48.658;9.068;2023-04-06T09:17:03;10.65;;;8.15;;
15595;SDS011;7898;48.658;9.068;2023-04-06T09:19:31;9.20;;;7.90;;
15595;SDS011;7898;48.658;9.068;2023-04-06T09:22:01;10.10;;;6.75;;
15595;SDS011;7898;48.658;9.068;2023-04-06T09:24:39;8.70;;;7.13;;
15595;SDS011;7898;48.658;9.068;2023-04-06T09:27:08;9.13;;;7.35;;
15595;SDS011;7898;48.658;9.068;2023-04-06T09:29:35;7.85;;;6.40;;
15595;SDS011;7898;48.658;9.068;2023-04-06T09:32:03;9.50;;;6.40;;
15595;SDS011;7898;48.658;9.068;2023-04-06T09:34:30;6.88;;;6.03;;
15595;SDS011;7898;48.658;9.068;2023-04-06T09:36:58;8.57;;;6.10;;
15595;SDS011;7898;48.658;9.068;2023-04-06T09:39:25;6.10;;;5.32;;
15595;SDS011;7898;48.658;9.068;2023-04-06T09:41:52;6.55;;;5.78;;
15595;SDS011;7898;48.658;9.068;2023-04-06T09:44:22;9.07;;;7.13;;
15595;SDS011;7898;48.658;9.068;2023-04-06T09:46:50;10.60;;;6.90;;
15595;SDS011;7898;48.658;9.068;2023-04-06T09:49:21;9.23;;;7.32;;
15595;SDS011;7898;48.658;9.068;2023-04-06T09:51:52;12.02;;;7.18;;
15595;SDS011;7898;48.658;9.068;2023-04-06T09:54:22;8.82;;;6.13;;
15595;SDS011;7898;48.658;9.068;2023-04-06T09:56:54;7.70;;;6.20;;
15595;SDS011;7898;48.658;9.068;2023-04-06T09:59:28;7.95;;;6.10;;
15595;SDS011;7898;48.658;9.068;2023-04-06T10:02:02;8.18;;;6.30;;
15595;SDS011;7898;48.658;9.068;2023-04-06T10:04:34;8.48;;;6.68;;
15595;SDS011;7898;48.658;9.068;2023-04-06T10:07:08;7.32;;;6.43;;
15595;SDS011;7898;48.658;9.068;2023-04-06T10:09:38;9.32;;;6.55;;
15595;SDS011;7898;48.658;9.068;2023-04-06T10:12:05;6.93;;;6.15;;
15595;SDS011;7898;48.658;9.068;2023-04-06T10:14:34;6.45;;;5.55;;
15595;SDS011;7898;48.658;9.068;2023-04-06T10:17:02;16.35;;;6.35;;
15595;SDS011;7898;48.658;9.068;2023-04-06T10:19:32;9.07;;;6.50;;
15595;SDS011;7898;48.658;9.068;2023-04-06T10:22:06;8.25;;;6.32;;
15595;SDS011;7898;48.658;9.068;2023-04-06T10:24:36;8.63;;;6.40;;
15595;SDS011;7898;48.658;9.068;2023-04-06T10:27:03;7.35;;;6.18;;
15595;SDS011;7898;48.658;9.068;2023-04-06T10:29:45;8.90;;;6.78;;
15595;SDS011;7898;48.658;9.068;2023-04-06T10:32:13;10.25;;;7.28;;
15595;SDS011;7898;48.658;9.068;2023-04-06T10:34:40;9.43;;;7.57;;
15595;SDS011;7898;48.658;9.068;2023-04-06T10:37:12;7.85;;;6.95;;
15595;SDS011;7898;48.658;9.068;2023-04-06T10:39:46;13.23;;;7.55;;
15595;SDS011;7898;48.658;9.068;2023-04-06T10:42:13;9.05;;;7.35;;
15595;SDS011;7898;48.658;9.068;2023-04-06T10:44:42;7.70;;;6.45;;
15595;SDS011;7898;48.658;9.068;2023-04-06T10:47:16;7.82;;;6.60;;
15595;SDS011;7898;48.658;9.068;2023-04-06T10:49:44;9.07;;;6.72;;
15595;SDS011;7898;48.658;9.068;2023-04-06T10:52:11;9.60;;;7.90;;
15595;SDS011;7898;48.658;9.068;2023-04-06T10:54:41;9.45;;;7.20;;
15595;SDS011;7898;48.658;9.068;2023-04-06T10:57:09;7.63;;;6.68;;
15595;SDS011;7898;48.658;9.068;2023-04-06T10:59:37;11.45;;;6.60;;
15595;SDS011;7898;48.658;9.068;2023-04-06T11:02:08;8.45;;;6.72;;
15595;SDS011;7898;48.658;9.068;2023-04-06T11:04:54;7.05;;;6.13;;
15595;SDS011;7898;48.658;9.068;2023-04-06T11:07:22;7.80;;;6.38;;
15595;SDS011;7898;48.658;9.068;2023-04-06T11:09:50;10.30;;;5.93;;
15595;SDS011;7898;48.658;9.068;2023-04-06T11:12:21;7.93;;;6.25;;
15595;SDS011;7898;48.658;9.068;2023-04-06T11:14:53;8.43;;;6.10;;
15595;SDS011;7898;48.658;9.068;2023-04-06T11:17:25;8.45;;;5.95;;
15595;SDS011;7898;48.658;9.068;2023-04-06T11:19:52;7.53;;;5.97;;
15595;SDS011;7898;48.658;9.068;2023-04-06T11:22:21;9.23;;;6.20;;
15595;SDS011;7898;48.658;9.068;2023-04-06T11:24:48;7.43;;;6.15;;
15595;SDS011;7898;48.658;9.068;2023-04-06T11:27:15;7.53;;;6.20;;
15595;SDS011;7898;48.658;9.068;2023-04-06T11:29:43;8.57;;;6.35;;
15595;SDS011;7898;48.658;9.068;2023-04-06T11:32:11;7.80;;;5.93;;
15595;SDS011;7898;48.658;9.068;2023-04-06T11:34:46;7.20;;;6.28;;
15595;SDS011;7898;48.658;9.068;2023-04-06T11:37:15;8.38;;;5.90;;
15595;SDS011;7898;48.658;9.068;2023-04-06T11:39:43;7.15;;;5.72;;
15595;SDS011;7898;48.658;9.068;2023-04-06T11:42:21;6.85;;;5.32;;
15595;SDS011;7898;48.658;9.068;2023-04-06T11:44:49;10.77;;;6.30;;
15595;SDS011;7898;48.658;9.068;2023-04-06T11:47:18;7.32;;;6.05;;
15595;SDS011;7898;48.658;9.068;2023-04-06T11:49:47;9.32;;;7.00;;
15595;SDS011;7898;48.658;9.068;2023-04-06T11:52:16;7.63;;;6.45;;
15595;SDS011;7898;48.658;9.068;2023-04-06T11:54:46;9.55;;;6.95;;
15595;SDS011;7898;48.658;9.068;2023-04-06T11:57:13;9.38;;;6.65;;
15595;SDS011;7898;48.658;9.068;2023-04-06T11:59:41;8.38;;;6.38;;
15595;SDS011;7898;48.658;9.068;2023-04-06T12:02:08;7.55;;;6.30;;
15595;SDS011;7898;48.658;9.068;2023-04-06T12:04:36;8.70;;;7.28;;
15595;SDS011;7898;48.658;9.068;2023-04-06T12:07:04;6.65;;;5.55;;
15595;SDS011;7898;48.658;9.068;2023-04-06T12:09:32;9.75;;;6.47;;
15595;SDS011;7898;48.658;9.068;2023-04-06T12:12:01;8.45;;;6.38;;
15595;SDS011;7898;48.658;9.068;2023-04-06T12:14:28;7.03;;;5.97;;
15595;SDS011;7898;48.658;9.068;2023-04-06T12:16:56;7.30;;;5.55;;
15595;SDS011;7898;48.658;9.068;2023-04-06T12:19:23;10.35;;;7.25;;
15595;SDS011;7898;48.658;9.068;2023-04-06T12:21:51;8.02;;;6.22;;
15595;SDS011;7898;48.658;9.068;2023-04-06T12:24:18;8.45;;;7.00;;
15595;SDS011;7898;48.658;9.068;2023-04-06T12:26:47;8.48;;;7.00;;
15595;SDS011;7898;48.658;9.068;2023-04-06T12:29:14;8.25;;;6.40;;
15595;SDS011;7898;48.658;9.068;2023-04-06T12:31:41;9.45;;;6.55;;
15595;SDS011;7898;48.658;9.068;2023-04-06T12:34:09;8.73;;;6.45;;
15595;SDS011;7898;48.658;9.068;2023-04-06T12:36:37;9.02;;;6.55;;
15595;SDS011;7898;48.658;9.068;2023-04-06T12:39:04;9.25;;;6.43;;
15595;SDS011;7898;48.658;9.068;2023-04-06T12:41:31;9.05;;;7.30;;
15595;SDS011;7898;48.658;9.068;2023-04-06T12:44:00;7.82;;;6.18;;
15595;SDS011;7898;48.658;9.068;2023-04-06T12:46:28;8.95;;;6.13;;
15595;SDS011;7898;48.658;9.068;2023-04-06T12:48:56;7.22;;;4.90;;
15595;SDS011;7898;48.658;9.068;2023-04-06T12:51:24;6.70;;;5.50;;
15595;SDS011;7898;48.658;9.068;2023-04-06T12:53:51;7.82;;;4.95;;
15595;SDS011;7898;48.658;9.068;2023-04-06T12:56:18;7.13;;;6.10;;
15595;SDS011;7898;48.658;9.068;2023-04-06T12:58:47;9.45;;;7.20;;
15595;SDS011;7898;48.658;9.068;2023-04-06T13:01:18;8.75;;;5.35;;
15595;SDS011;7898;48.658;9.068;2023-04-06T13:03:45;8.80;;;5.70;;
15595;SDS011;7898;48.658;9.068;2023-04-06T13:06:12;7.18;;;5.53;;
15595;SDS011;7898;48.658;9.068;2023-04-06T13:08:40;9.82;;;5.50;;
15595;SDS011;7898;48.658;9.068;2023-04-06T13:11:07;6.10;;;5.43;;
15595;SDS011;7898;48.658;9.068;2023-04-06T13:13:34;12.35;;;8.13;;
15595;SDS011;7898;48.658;9.068;2023-04-06T13:16:02;7.70;;;6.10;;
15595;SDS011;7898;48.658;9.068;2023-04-06T13:18:32;9.05;;;6.75;;
15595;SDS011;7898;48.658;9.068;2023-04-06T13:21:00;8.55;;;5.68;;
15595;SDS011;7898;48.658;9.068;2023-04-06T13:23:27;7.25;;;5.85;;
15595;SDS011;7898;48.658;9.068;2023-04-06T13:25:58;6.65;;;4.78;;
15595;SDS011;7898;48.658;9.068;2023-04-06T13:28:26;7.25;;;5.18;;
15595;SDS011;7898;48.658;9.068;2023-04-06T13:30:53;5.82;;;4.63;;
15595;SDS011;7898;48.658;9.068;2023-04-06T13:33:21;8.05;;;5.25;;
15595;SDS011;7898;48.658;9.068;2023-04-06T13:35:50;9.40;;;5.20;;
15595;SDS011;7898;48.658;9.068;2023-04-06T13:38:17;6.03;;;5.15;;
15595;SDS011;7898;48.658;9.068;2023-04-06T13:40:44;7.15;;;5.30;;
15595;SDS011;7898;48.658;9.068;2023-04-06T13:43:11;6.55;;;5.45;;
15595;SDS011;7898;48.658;9.068;2023-04-06T13:45:38;6.53;;;5.13;;
15595;SDS011;7898;48.658;9.068;2023-04-06T13:48:05;9.60;;;5.20;;
15595;SDS011;7898;48.658;9.068;2023-04-06T13:50:32;5.75;;;4.85;;
15595;SDS011;7898;48.658;9.068;2023-04-06T13:53:01;6.93;;;5.30;;
15595;SDS011;7898;48.658;9.068;2023-04-06T13:55:28;6.30;;;5.00;;
15595;SDS011;7898;48.658;9.068;2023-04-06T13:57:56;6.80;;;5.15;;
15595;SDS011;7898;48.658;9.068;2023-04-06T14:00:23;9.10;;;4.95;;
15595;SDS011;7898;48.658;9.068;2023-04-06T14:02:50;5.93;;;4.65;;
15595;SDS011;7898;48.658;9.068;2023-04-06T14:05:19;7.25;;;4.78;;
15595;SDS011;7898;48.658;9.068;2023-04-06T14:07:46;5.82;;;5.18;;
15595;SDS011;7898;48.658;9.068;2023-04-06T14:10:15;5.68;;;4.97;;
15595;SDS011;7898;48.658;9.068;2023-04-06T14:12:42;8.80;;;5.45;;
15595;SDS011;7898;48.658;9.068;2023-04-06T14:15:10;11.57;;;5.90;;
15595;SDS011;7898;48.658;9.068;2023-04-06T14:17:38;8.27;;;6.28;;
15595;SDS011;7898;48.658;9.068;2023-04-06T14:20:05;7.85;;;6.22;;
15595;SDS011;7898;48.658;9.068;2023-04-06T14:22:33;9.82;;;5.55;;
15595;SDS011;7898;48.658;9.068;2023-04-06T14:25:00;7.53;;;6.45;;
15595;SDS011;7898;48.658;9.068;2023-04-06T14:27:30;7.28;;;5.97;;
15595;SDS011;7898;48.658;9.068;2023-04-06T14:29:56;7.05;;;5.57;;
15595;SDS011;7898;48.658;9.068;2023-04-06T14:32:23;7.53;;;5.90;;
15595;SDS011;7898;48.658;9.068;2023-04-06T14:34:51;7.03;;;5.82;;
15595;SDS011;7898;48.658;9.068;2023-04-06T14:37:18;7.30;;;6.10;;
15595;SDS011;7898;48.658;9.068;2023-04-06T14:39:46;8.48;;;5.47;;
15595;SDS011;7898;48.658;9.068;2023-04-06T14:42:13;7.53;;;5.93;;
15595;SDS011;7898;48.658;9.068;2023-04-06T14:44:41;7.93;;;6.35;;
15595;SDS011;7898;48.658;9.068;2023-04-06T14:47:10;6.95;;;6.00;;
15595;SDS011;7898;48.658;9.068;2023-04-06T14:49:40;9.38;;;6.57;;
15595;SDS011;7898;48.658;9.068;2023-04-06T14:52:07;9.68;;;6.65;;
15595;SDS011;7898;48.658;9.068;2023-04-06T14:54:34;8.43;;;6.80;;
15595;SDS011;7898;48.658;9.068;2023-04-06T14:57:01;8.30;;;6.78;;